createdAt,value
2019-05-19T00:01:10.410Z,7.12
2019-05-19T00:03:39.405Z,6.45
2019-05-19T00:06:08.726Z,6.92
2019-05-19T00:08:37.720Z,6.60
2019-05-19T00:13:35.393Z,6.85
2019-05-19T00:16:05.504Z,7.15
2019-05-19T00:18:34.739Z,7.28
2019-05-19T00:23:34.391Z,7.42
2019-05-19T00:26:04.073Z,7.28
2019-05-19T00:28:33.563Z,8.43
2019-05-19T00:31:03.304Z,8.58
2019-05-19T00:33:33.036Z,8.50
2019-05-19T00:36:02.955Z,8.23
2019-05-19T00:38:32.491Z,8.48
2019-05-19T00:41:02.313Z,7.78
2019-05-19T00:44:59.049Z,7.87
2019-05-19T00:47:29.106Z,7.62
2019-05-19T00:49:57.924Z,7.92
2019-05-19T00:52:47.503Z,7.67
2019-05-19T00:55:16.479Z,7.37
2019-05-19T00:57:47.526Z,7.85
2019-05-19T01:00:17.129Z,8.63
2019-05-19T01:02:46.448Z,8.45
2019-05-19T01:05:15.556Z,8.90
2019-05-19T01:07:44.581Z,8.70
2019-05-19T01:10:13.859Z,8.80
2019-05-19T01:12:42.716Z,8.78
2019-05-19T01:15:11.899Z,8.30
2019-05-19T01:17:40.711Z,8.70
2019-05-19T01:22:38.940Z,8.15
2019-05-19T01:25:08.698Z,9.03
2019-05-19T01:30:07.891Z,8.33
2019-05-19T01:32:37.004Z,7.35
2019-05-19T01:35:06.400Z,8.33
2019-05-19T01:37:35.501Z,8.93
2019-05-19T01:40:05.546Z,8.28
2019-05-19T01:42:34.469Z,7.78
2019-05-19T01:45:04.529Z,6.55
2019-05-19T01:47:33.389Z,6.75
2019-05-19T01:50:16.854Z,6.25
2019-05-19T01:52:33.407Z,6.12
2019-05-19T01:55:02.570Z,6.70
2019-05-19T01:57:32.584Z,7.08
2019-05-19T02:00:01.914Z,8.00
2019-05-19T02:02:32.525Z,9.80
2019-05-19T02:05:01.718Z,8.75
2019-05-19T02:07:30.726Z,8.23
2019-05-19T02:12:27.700Z,8.85
2019-05-19T02:17:24.928Z,8.65
2019-05-19T02:19:53.750Z,10.25
2019-05-19T02:24:50.794Z,9.83
2019-05-19T02:27:20.018Z,9.98
2019-05-19T02:29:49.036Z,10.08
2019-05-19T02:32:18.080Z,10.28
2019-05-19T02:34:46.904Z,10.38
2019-05-19T02:37:15.698Z,9.88
2019-05-19T02:42:15.950Z,11.22
2019-05-19T02:44:49.806Z,10.85
2019-05-19T02:47:22.293Z,11.03
2019-05-19T02:49:54.556Z,12.40
2019-05-19T02:52:25.742Z,13.48
2019-05-19T02:57:23.785Z,12.63
2019-05-19T02:59:53.288Z,12.33
2019-05-19T03:02:22.089Z,12.18
2019-05-19T03:04:50.914Z,11.78
2019-05-19T03:07:19.772Z,12.20
2019-05-19T03:09:49.337Z,12.70
2019-05-19T03:12:18.465Z,13.00
2019-05-19T03:14:47.499Z,13.20
2019-05-19T03:17:17.561Z,13.55
2019-05-19T03:19:46.846Z,14.55
2019-05-19T03:22:15.716Z,14.55
2019-05-19T03:28:51.571Z,13.18
2019-05-19T03:31:36.433Z,13.55
2019-05-19T03:34:05.422Z,14.40
2019-05-19T03:36:34.483Z,12.82
2019-05-19T03:39:07.580Z,12.82
2019-05-19T03:41:36.895Z,13.38
2019-05-19T03:44:06.049Z,13.98
2019-05-19T03:46:35.025Z,13.58
2019-05-19T03:49:04.116Z,13.05
2019-05-19T03:51:33.087Z,13.62
2019-05-19T03:54:01.928Z,15.28
2019-05-19T03:56:31.924Z,13.13
2019-05-19T03:59:01.045Z,13.55
2019-05-19T04:01:30.306Z,14.55
2019-05-19T04:03:59.495Z,14.93
2019-05-19T04:06:28.451Z,14.00
2019-05-19T04:08:57.551Z,13.08
2019-05-19T04:11:26.690Z,13.30
2019-05-19T04:16:24.016Z,13.80
2019-05-19T04:18:52.902Z,13.08
2019-05-19T04:21:21.923Z,13.13
2019-05-19T04:23:50.905Z,14.28
2019-05-19T04:29:06.911Z,14.00
2019-05-19T04:31:36.043Z,13.78
2019-05-19T04:34:05.546Z,13.32
2019-05-19T04:36:34.943Z,11.88
2019-05-19T04:39:06.564Z,10.82
2019-05-19T04:41:39.859Z,11.65
2019-05-19T04:44:06.887Z,9.58
2019-05-19T04:46:36.147Z,10.15
2019-05-19T04:49:05.299Z,9.80
2019-05-19T04:51:34.656Z,9.13
2019-05-19T04:54:03.902Z,8.38
2019-05-19T04:56:32.741Z,9.20
2019-05-19T04:59:02.841Z,8.38
2019-05-19T05:01:31.945Z,9.13
2019-05-19T05:04:00.701Z,7.95
2019-05-19T05:08:57.704Z,8.80
2019-05-19T05:13:55.397Z,9.05
2019-05-19T05:16:25.414Z,8.05
2019-05-19T05:18:54.443Z,8.05
2019-05-19T05:21:23.429Z,8.83
2019-05-19T05:23:52.435Z,8.13
2019-05-19T05:26:21.390Z,8.63
2019-05-19T05:28:50.376Z,8.48
2019-05-19T05:31:19.300Z,7.60
2019-05-19T05:33:48.048Z,6.17
2019-05-19T05:36:17.015Z,5.67
2019-05-19T05:38:46.062Z,5.03
2019-05-19T05:41:15.296Z,5.03
2019-05-19T05:43:44.417Z,5.30
2019-05-19T05:46:13.411Z,4.95
2019-05-19T05:48:42.583Z,5.40
2019-05-19T05:51:11.564Z,5.67
2019-05-19T05:53:40.390Z,6.60
2019-05-19T05:56:09.393Z,6.60
2019-05-19T05:58:38.420Z,6.53
2019-05-19T06:01:07.538Z,6.20
2019-05-19T06:03:36.519Z,6.42
2019-05-19T06:06:06.725Z,5.90
2019-05-19T06:08:36.465Z,5.90
2019-05-19T06:11:05.986Z,7.00
2019-05-19T06:13:35.547Z,6.78
2019-05-19T06:16:04.863Z,6.20
2019-05-19T06:18:34.484Z,6.90
2019-05-19T06:21:03.990Z,7.37
2019-05-19T06:23:33.625Z,7.65
2019-05-19T06:28:31.950Z,7.33
2019-05-19T06:31:00.766Z,7.67
2019-05-19T06:35:57.893Z,7.45
2019-05-19T06:38:27.140Z,7.37
2019-05-19T06:40:56.059Z,8.25
2019-05-19T06:43:25.468Z,7.85
2019-05-19T06:45:54.495Z,7.62
2019-05-19T06:48:23.511Z,7.22
2019-05-19T06:50:52.723Z,8.63
2019-05-19T06:55:50.235Z,7.65
2019-05-19T06:58:19.453Z,7.08
2019-05-19T07:00:48.686Z,8.48
2019-05-19T07:03:17.806Z,8.05
2019-05-19T07:05:46.718Z,7.95
2019-05-19T07:10:44.114Z,8.55
2019-05-19T07:14:17.971Z,9.15
2019-05-19T07:16:48.693Z,10.35
2019-05-19T07:19:17.781Z,9.70
2019-05-19T07:24:15.082Z,9.78
2019-05-19T07:26:45.072Z,11.50
2019-05-19T07:29:13.915Z,11.85
2019-05-19T07:31:43.058Z,11.08
2019-05-19T07:34:12.059Z,10.48
2019-05-19T07:36:42.433Z,12.25
2019-05-19T07:39:11.430Z,12.20
2019-05-19T07:41:40.413Z,13.18
2019-05-19T07:44:09.407Z,12.68
2019-05-19T07:46:38.512Z,11.75
2019-05-19T07:49:07.400Z,12.82
2019-05-19T07:51:36.899Z,12.20
2019-05-19T07:54:06.703Z,11.33
2019-05-19T07:59:07.921Z,12.03
2019-05-19T08:01:36.922Z,11.08
2019-05-19T08:04:06.504Z,11.50
2019-05-19T08:06:35.501Z,11.80
2019-05-19T08:09:05.817Z,11.05
2019-05-19T08:11:36.055Z,11.55
2019-05-19T08:14:22.555Z,9.68
2019-05-19T08:19:20.615Z,9.50
2019-05-19T08:21:49.256Z,8.28
2019-05-19T08:24:17.902Z,9.18
2019-05-19T08:26:46.913Z,7.50
2019-05-19T08:29:15.715Z,8.65
2019-05-19T08:34:12.967Z,6.75
2019-05-19T08:36:41.916Z,5.72
2019-05-19T08:39:10.714Z,7.45
2019-05-19T08:44:07.983Z,6.90
2019-05-19T08:46:37.463Z,6.17
2019-05-19T08:49:07.525Z,7.15
2019-05-19T08:53:30.070Z,6.33
2019-05-19T08:55:58.922Z,7.75
2019-05-19T08:58:27.939Z,7.20
2019-05-19T09:00:57.109Z,7.20
2019-05-19T09:03:26.439Z,6.28
2019-05-19T09:05:55.740Z,6.75
2019-05-19T09:10:53.427Z,5.87
2019-05-19T09:13:22.490Z,4.83
2019-05-19T09:15:52.455Z,6.97
2019-05-19T09:18:21.735Z,6.90
2019-05-19T09:23:19.443Z,6.12
2019-05-19T09:25:48.559Z,5.30
2019-05-19T09:28:17.722Z,6.12
2019-05-19T09:30:46.937Z,4.70
2019-05-19T09:33:17.448Z,6.40
2019-05-19T09:35:46.486Z,6.42
2019-05-19T09:40:43.950Z,5.78
2019-05-19T09:43:13.102Z,5.33
2019-05-19T09:45:42.046Z,5.30
2019-05-19T09:48:11.095Z,5.60
2019-05-19T09:50:40.062Z,4.22
2019-05-19T09:53:09.416Z,4.97
2019-05-19T09:55:38.430Z,4.42
2019-05-19T09:58:08.032Z,5.62
2019-05-19T10:00:37.558Z,5.78
2019-05-19T10:03:07.072Z,6.28
2019-05-19T10:05:36.585Z,5.00
2019-05-19T10:08:06.224Z,4.62
2019-05-19T10:11:47.865Z,4.50
2019-05-19T10:14:17.500Z,6.70
2019-05-19T10:16:46.944Z,6.08
2019-05-19T10:19:15.929Z,5.53
2019-05-19T10:21:44.935Z,6.75
2019-05-19T10:24:14.307Z,5.28
2019-05-19T10:26:43.802Z,5.50
2019-05-19T10:29:13.160Z,5.85
2019-05-19T10:31:42.408Z,5.53
2019-05-19T10:36:41.066Z,5.75
2019-05-19T10:39:10.574Z,5.50
2019-05-19T10:41:40.442Z,3.52
2019-05-19T10:44:09.375Z,4.83
2019-05-19T10:46:38.941Z,6.10
2019-05-19T10:49:08.740Z,5.12
2019-05-19T10:54:07.709Z,4.47
2019-05-19T10:59:07.011Z,5.15
2019-05-19T11:01:36.822Z,5.15
2019-05-19T11:04:06.723Z,5.45
2019-05-19T11:06:36.067Z,5.35
2019-05-19T11:09:08.406Z,4.72
2019-05-19T11:11:38.302Z,4.67
2019-05-19T11:14:07.959Z,4.50
2019-05-19T11:16:38.054Z,4.70
2019-05-19T11:19:08.114Z,3.75
2019-05-19T11:21:37.219Z,4.05
2019-05-19T11:24:06.916Z,4.05
2019-05-19T11:26:37.302Z,4.17
2019-05-19T11:29:08.386Z,3.92
2019-05-19T11:31:37.834Z,4.30
2019-05-19T11:34:10.549Z,4.03
2019-05-19T11:36:39.554Z,3.45
2019-05-19T11:39:09.864Z,3.22
2019-05-19T11:41:39.488Z,3.33
2019-05-19T11:44:08.682Z,3.58
2019-05-19T11:46:38.530Z,3.30
2019-05-19T11:49:08.830Z,2.80
2019-05-19T11:51:38.717Z,2.40
2019-05-19T11:54:08.102Z,3.40
2019-05-19T11:56:37.589Z,3.77
2019-05-19T11:59:06.633Z,2.95
2019-05-19T12:04:04.424Z,3.37
2019-05-19T12:06:39.262Z,2.90
2019-05-19T12:09:07.715Z,3.40
2019-05-19T12:11:37.506Z,2.72
2019-05-19T12:14:07.549Z,2.70
2019-05-19T12:19:07.293Z,2.60
2019-05-19T12:21:37.160Z,3.20
2019-05-19T12:24:06.699Z,3.00
2019-05-19T12:29:05.520Z,3.20
2019-05-19T12:31:34.558Z,2.40
2019-05-19T12:36:31.951Z,2.98
2019-05-19T12:39:00.979Z,3.30
2019-05-19T12:41:30.463Z,2.72
2019-05-19T12:43:59.472Z,2.90
2019-05-19T12:46:28.562Z,2.65
2019-05-19T12:51:26.891Z,2.52
2019-05-19T12:53:56.445Z,2.20
2019-05-19T12:56:38.640Z,2.98
2019-05-19T12:58:56.559Z,3.35
2019-05-19T13:01:25.530Z,2.83
2019-05-19T13:03:54.742Z,2.80
2019-05-19T13:06:23.951Z,2.85
2019-05-19T13:08:52.915Z,2.33
2019-05-19T13:11:22.135Z,2.83
2019-05-19T13:13:51.548Z,2.83
2019-05-19T13:16:20.425Z,3.00
2019-05-19T13:18:49.413Z,2.47
2019-05-19T13:21:18.757Z,2.90
2019-05-19T13:23:47.955Z,2.50
2019-05-19T13:26:16.954Z,2.50
2019-05-19T13:28:45.947Z,3.20
2019-05-19T13:31:14.952Z,2.67
2019-05-19T13:33:43.941Z,2.72
2019-05-19T13:36:13.000Z,2.58
2019-05-19T13:38:42.421Z,2.47
2019-05-19T13:41:11.448Z,2.62
2019-05-19T13:43:40.436Z,2.52
2019-05-19T13:46:09.956Z,2.62
2019-05-19T13:48:39.586Z,2.65
2019-05-19T13:51:12.089Z,2.70
2019-05-19T13:53:40.959Z,2.70
2019-05-19T13:56:10.067Z,2.60
2019-05-19T13:58:39.883Z,2.52
2019-05-19T14:01:09.481Z,2.47
2019-05-19T14:03:39.069Z,3.08
2019-05-19T14:06:09.281Z,3.30
2019-05-19T14:08:40.590Z,2.87
2019-05-19T14:11:10.298Z,3.35
2019-05-19T14:13:39.941Z,2.95
2019-05-19T14:16:09.613Z,3.05
2019-05-19T14:18:39.605Z,2.50
2019-05-19T14:21:09.126Z,2.65
2019-05-19T14:23:38.588Z,3.70
2019-05-19T14:26:08.023Z,3.00
2019-05-19T14:28:37.539Z,2.75
2019-05-19T14:31:07.601Z,2.67
2019-05-19T14:33:37.931Z,2.95
2019-05-19T14:36:07.751Z,3.20
2019-05-19T14:41:05.013Z,2.67
2019-05-19T14:43:34.550Z,2.65
2019-05-19T14:46:03.560Z,2.60
2019-05-19T14:48:32.568Z,2.70
2019-05-19T14:51:01.574Z,2.85
2019-05-19T14:56:00.442Z,2.62
2019-05-19T14:58:29.595Z,2.40
2019-05-19T15:00:58.579Z,2.72
2019-05-19T15:03:27.734Z,2.40
2019-05-19T15:05:56.773Z,2.70
2019-05-19T15:10:54.473Z,2.50
2019-05-19T15:13:23.760Z,2.25
2019-05-19T15:15:52.795Z,2.40
2019-05-19T15:18:22.094Z,2.60
2019-05-19T15:20:51.283Z,2.85
2019-05-19T15:23:20.316Z,2.42
2019-05-19T15:25:49.125Z,2.62
2019-05-19T15:28:18.114Z,2.12
2019-05-19T15:30:47.498Z,2.30
2019-05-19T15:33:16.758Z,2.47
2019-05-19T15:40:43.304Z,3.08
2019-05-19T15:43:12.603Z,2.70
2019-05-19T15:45:41.773Z,2.45
2019-05-19T15:48:11.137Z,1.57
2019-05-19T15:50:40.951Z,1.52
2019-05-19T15:53:12.521Z,2.40
2019-05-19T15:56:00.223Z,3.12
2019-05-19T15:58:30.463Z,3.22
2019-05-19T16:00:59.122Z,3.20
2019-05-19T16:03:27.538Z,3.62
2019-05-19T16:05:55.882Z,3.85
2019-05-19T16:08:24.408Z,4.50
2019-05-19T16:10:52.920Z,4.55
2019-05-19T16:15:49.531Z,4.75
2019-05-19T16:18:21.718Z,6.03
2019-05-19T16:23:19.012Z,8.05
2019-05-19T16:25:49.738Z,7.78
2019-05-19T16:30:49.335Z,8.85
2019-05-19T16:33:18.113Z,10.10
2019-05-19T16:35:47.972Z,8.70
2019-05-19T16:38:16.998Z,5.20
2019-05-19T16:40:48.102Z,4.78
2019-05-19T16:43:17.314Z,2.90
2019-05-19T16:45:47.759Z,4.25
2019-05-19T16:48:17.110Z,6.37
2019-05-19T16:50:46.621Z,7.00
2019-05-19T16:53:17.437Z,9.48
2019-05-19T16:55:46.781Z,9.23
2019-05-19T16:58:20.974Z,9.03
2019-05-19T17:00:47.013Z,7.67
2019-05-19T17:03:16.319Z,8.85
2019-05-19T17:05:45.601Z,9.60
2019-05-19T17:10:43.183Z,11.48
2019-05-19T17:13:12.585Z,7.90
2019-05-19T17:15:41.565Z,7.42
2019-05-19T17:18:11.006Z,7.85
2019-05-19T17:20:40.486Z,8.40
2019-05-19T17:23:09.774Z,7.08
2019-05-19T17:28:08.922Z,8.63
2019-05-19T17:30:39.633Z,8.65
2019-05-19T17:33:11.573Z,8.50
2019-05-19T17:38:11.072Z,11.73
2019-05-19T17:40:40.878Z,11.90
2019-05-19T17:43:09.811Z,9.25
2019-05-19T17:45:39.307Z,7.22
2019-05-19T17:48:10.294Z,7.15
2019-05-19T17:50:39.522Z,6.95
2019-05-19T17:53:09.546Z,6.10
2019-05-19T17:55:39.130Z,6.00
2019-05-19T17:58:08.420Z,6.62
2019-05-19T18:00:39.987Z,6.03
2019-05-19T18:03:10.021Z,6.67
2019-05-19T18:05:40.303Z,7.83
2019-05-19T18:08:10.008Z,7.47
2019-05-19T18:10:40.129Z,7.83
2019-05-19T18:13:09.740Z,8.10
2019-05-19T18:18:08.455Z,8.08
2019-05-19T18:20:37.581Z,7.35
2019-05-19T18:23:06.816Z,8.20
2019-05-19T18:25:35.905Z,8.53
2019-05-19T18:28:05.013Z,10.00
2019-05-19T18:30:34.070Z,9.98
2019-05-19T18:33:03.202Z,8.85
2019-05-19T18:35:35.607Z,9.65
2019-05-19T18:38:04.558Z,11.35
2019-05-19T18:43:03.140Z,11.83
2019-05-19T18:45:32.528Z,12.82
2019-05-19T18:48:01.777Z,11.83
2019-05-19T18:52:59.456Z,11.50
2019-05-19T18:55:28.639Z,10.35
2019-05-19T19:00:38.894Z,7.37
2019-05-19T19:03:08.959Z,6.95
2019-05-19T19:05:38.179Z,6.53
2019-05-19T19:08:07.484Z,6.85
2019-05-19T19:10:36.888Z,9.00
2019-05-19T19:13:05.910Z,14.90
2019-05-19T19:15:34.982Z,7.80
2019-05-19T19:18:04.316Z,8.03
2019-05-19T19:20:34.646Z,8.35
2019-05-19T19:25:34.103Z,8.15
2019-05-19T19:28:03.495Z,8.53
2019-05-19T19:30:32.592Z,11.95
2019-05-19T19:33:01.698Z,11.10
2019-05-19T19:40:33.496Z,12.82
2019-05-19T19:43:02.524Z,10.82
2019-05-19T19:45:31.726Z,10.23
2019-05-19T19:48:00.737Z,9.15
2019-05-19T19:53:01.058Z,10.32
2019-05-19T19:55:30.330Z,10.32
2019-05-19T19:57:59.448Z,9.98
2019-05-19T20:00:44.155Z,9.65
2019-05-19T20:03:13.592Z,9.48
2019-05-19T20:05:45.706Z,8.80
2019-05-19T20:08:17.569Z,9.23
2019-05-19T20:13:18.579Z,9.00
2019-05-19T20:18:16.164Z,9.58
2019-05-19T20:20:45.331Z,9.30
2019-05-19T20:23:14.127Z,9.13
2019-05-19T20:25:43.320Z,8.48
2019-05-19T20:28:12.798Z,9.28
2019-05-19T20:33:11.059Z,8.45
2019-05-19T20:35:40.933Z,8.40
2019-05-19T20:38:12.785Z,9.10
2019-05-19T20:43:12.770Z,9.13
2019-05-19T20:48:10.955Z,9.68
2019-05-19T20:50:40.444Z,9.30
2019-05-19T20:53:10.593Z,11.63
2019-05-19T20:55:39.817Z,10.95
2019-05-19T20:58:08.985Z,10.00
2019-05-19T21:00:49.535Z,13.93
2019-05-19T21:06:55.729Z,14.23
2019-05-19T21:09:24.714Z,9.70
2019-05-19T21:11:53.739Z,10.50
2019-05-19T21:16:51.363Z,11.93
2019-05-19T21:19:20.469Z,11.75
2019-05-19T21:21:49.827Z,11.38
2019-05-19T21:24:18.723Z,10.63
2019-05-19T21:29:16.130Z,11.48
2019-05-19T21:31:45.137Z,12.60
2019-05-19T21:34:14.061Z,14.30
2019-05-19T21:36:43.732Z,13.20
2019-05-19T21:39:14.605Z,10.65
2019-05-19T21:41:43.767Z,10.23
2019-05-19T21:44:13.886Z,10.95
2019-05-19T21:46:43.603Z,11.93
2019-05-19T21:51:42.446Z,10.30
2019-05-19T21:54:12.028Z,10.58
2019-05-19T21:56:41.607Z,11.00
2019-05-19T21:59:11.174Z,9.63
2019-05-19T22:01:40.618Z,9.38
2019-05-19T22:04:10.325Z,9.88
2019-05-19T22:06:41.609Z,6.50
2019-05-19T22:09:11.495Z,6.25
2019-05-19T22:11:41.437Z,6.28
2019-05-19T22:14:11.433Z,6.72
2019-05-19T22:16:40.986Z,7.25
2019-05-19T22:19:10.485Z,8.13
2019-05-19T22:21:41.095Z,7.25
2019-05-19T22:24:10.406Z,7.87
2019-05-19T22:26:39.595Z,7.00
2019-05-19T22:29:08.870Z,6.97
2019-05-19T22:31:38.133Z,9.08
2019-05-19T22:34:07.989Z,7.83
2019-05-19T22:36:37.486Z,26.05
2019-05-19T22:39:07.123Z,42.00
2019-05-19T22:41:37.075Z,14.90
2019-05-19T22:44:06.148Z,9.75
2019-05-19T22:46:35.459Z,9.28
2019-05-19T22:49:04.734Z,6.72
2019-05-19T22:51:33.734Z,7.40
2019-05-19T22:56:30.929Z,6.85
2019-05-19T22:59:00.431Z,6.55
2019-05-19T23:01:29.569Z,5.72
2019-05-19T23:03:58.930Z,5.35
2019-05-19T23:06:27.920Z,6.40
2019-05-19T23:08:57.450Z,5.50
2019-05-19T23:11:26.562Z,5.40
2019-05-19T23:13:56.707Z,5.97
2019-05-19T23:18:54.405Z,5.53
2019-05-19T23:21:23.553Z,5.97
2019-05-19T23:23:53.930Z,5.60
2019-05-19T23:26:23.214Z,5.22
2019-05-19T23:28:52.298Z,5.42
2019-05-19T23:31:21.410Z,5.35
2019-05-19T23:33:50.553Z,5.25
2019-05-19T23:36:19.578Z,6.10
2019-05-19T23:38:48.741Z,6.22
2019-05-19T23:43:46.152Z,6.37
2019-05-19T23:46:15.303Z,6.15
2019-05-19T23:48:44.580Z,6.40
2019-05-19T23:51:13.977Z,6.55
2019-05-19T23:53:43.522Z,7.33
2019-05-19T23:56:12.698Z,5.47
2019-05-19T23:58:42.049Z,5.80
